Time;durP1;ratioP1;P1;durP2;ratioP2;P2;SDS_P1;SDS_P2;PMS_P1;PMS_P2;Temp;Humidity;BMP_temperature;BMP_pressure;BME280_temperature;BME280_humidity;BME280_pressure;Samples;Min_cycle;Max_cycle;Signal;HPM_P1;HPM_P2
2024/02/19 00:01:07;;;;;;;;;;;;;;;6.98;100.00;100652.06;5012498;28;20011;-89
2024/02/19 00:03:37;;;;;;;;;;;;;;;7.04;100.00;100660.75;4994984;28;19921;-91
2024/02/19 00:06:05;;;;;;;;;;;;;;;7.01;100.00;100666.06;5014882;28;19921;-88
2024/02/19 00:08:35;;;;;;;;;;;;;;;6.96;100.00;100673.16;5016390;28;19983;-94
2024/02/19 00:11:01;;;;;;;;;;;;;;;7.06;100.00;100663.34;4964266;28;19919;-90
2024/02/19 00:13:26;;;;;;;;;;;;;;;7.03;100.00;100663.41;4955411;28;20290;-95
2024/02/19 00:15:58;;;;;;;;;;;;;;;7.04;100.00;100673.06;4964953;28;20049;-91
2024/02/19 00:18:36;;;;;;;;;;;;;;;7.02;100.00;100670.44;4965633;28;19930;-90
2024/02/19 00:21:17;;;;;;;;;;;;;;;7.03;100.00;100666.91;4965302;28;20374;-92
2024/02/19 00:23:43;;;;;;;;;;;;;;;7.05;100.00;100658.97;4982278;28;20009;-89
2024/02/19 00:26:08;;;;;;;;;;;;;;;7.04;100.00;100663.38;4966183;28;20018;-87
2024/02/19 08:58:43;;;;;;;;;;;;;;;6.90;100.00;100960.44;4976117;28;19929;-89
2024/02/19 09:01:10;;;;;;;;;;;;;;;6.94;100.00;100959.53;4976522;28;19922;-85
2024/02/19 09:03:39;;;;;;;;;;;;;;;6.90;100.00;100956.03;4967820;28;19918;-88
2024/02/19 09:06:08;;;;;;;;;;;;;;;6.92;100.00;100948.09;4975008;28;19926;-85
2024/02/19 09:08:34;;;;;;;;;;;;;;;6.94;100.00;100945.47;4976653;28;20013;-87
2024/02/19 09:10:59;;;;;;;;;;;;;;;6.98;100.00;100945.41;4975008;28;20033;-89
2024/02/19 09:13:24;;;;;;;;;;;;;;;6.96;100.00;100951.63;4966825;28;20348;-89
2024/02/19 09:15:49;;;;;;;;;;;;;;;6.98;100.00;100957.72;4966834;28;19922;-89
2024/02/19 09:18:15;;;;;;;;;;;;;;;6.98;100.00;100963.00;4966582;28;20269;-88
2024/02/19 09:20:40;;;;;;;;;;;;;;;6.95;100.00;100969.16;4976157;28;19918;-90
2024/02/19 09:23:05;;;;;;;;;;;;;;;7.02;100.00;100960.31;4975859;28;19926;-89
2024/02/19 09:25:31;;;;;;;;;;;;;;;7.00;100.00;100964.72;4974860;28;19918;-89
2024/02/19 09:27:56;;;;;;;;;;;;;;;6.99;100.00;100965.63;4974617;28;20385;-89
2024/02/19 09:30:22;;;;;;;;;;;;;;;6.97;100.00;100964.75;4974976;28;19918;-89
2024/02/19 09:32:47;;;;;;;;;;;;;;;6.99;100.00;100964.72;4991385;28;20432;-89
2024/02/19 09:35:13;;;;;;;;;;;;;;;7.00;100.00;100962.06;4975705;28;20424;-88
2024/02/19 09:37:38;;;;;;;;;;;;;;;6.97;100.00;100970.00;4966344;28;19964;-89
2024/02/19 09:40:04;;;;;;;;;;;;;;;7.01;100.00;100961.19;4974450;28;19914;-88
2024/02/19 09:42:30;;;;;;;;;;;;;;;7.02;100.00;100960.31;4973634;28;19925;-85
2024/02/19 09:44:55;;;;;;;;;;;;;;;7.02;100.00;100954.16;4975121;28;20080;-89
2024/02/19 09:47:21;;;;;;;;;;;;;;;7.05;100.00;100955.03;4974327;28;20352;-89
2024/02/19 09:49:49;;;;;;;;;;;;;;;7.05;100.00;100954.13;4975188;28;19932;-89
2024/02/19 09:52:24;;;;;;;;;;;;;;;7.04;100.00;100953.28;4973826;28;19918;-88
2024/02/19 09:54:50;;;;;;;;;;;;;;;7.04;100.00;100948.00;4973837;28;19933;-89
2024/02/19 09:57:18;;;;;;;;;;;;;;;7.06;100.00;100945.34;4990652;28;19926;-89
2024/02/19 09:59:45;;;;;;;;;;;;;;;7.04;100.00;100947.13;4996100;28;20311;-88
2024/02/19 10:02:11;;;;;;;;;;;;;;;7.08;100.00;100947.09;5014204;28;20016;-88
2024/02/19 10:04:37;;;;;;;;;;;;;;;7.00;100.00;100948.91;5013391;28;19929;-88
2024/02/19 10:07:02;;;;;;;;;;;;;;;7.02;100.00;100946.25;5003297;28;19928;-88
2024/02/19 10:09:28;;;;;;;;;;;;;;;7.03;100.00;100946.25;5013000;28;20343;-88
2024/02/19 10:11:55;;;;;;;;;;;;;;;7.03;100.00;100948.88;5014165;28;20380;-88
2024/02/19 10:14:20;;;;;;;;;;;;;;;7.04;100.00;100947.13;5013473;28;19925;-89
2024/02/19 10:16:50;;;;;;;;;;;;;;;7.00;100.00;100946.25;5013336;28;19937;-87
2024/02/19 10:19:15;;;;;;;;;;;;;;;7.01;100.00;100942.75;4979324;28;20004;-87
2024/02/19 10:21:40;;;;;;;;;;;;;;;7.05;100.00;100938.31;4995448;28;20012;-89
2024/02/19 10:24:06;;;;;;;;;;;;;;;7.03;100.00;100943.59;4995886;28;19929;-88
2024/02/19 10:26:31;;;;;;;;;;;;;;;7.05;100.00;100940.94;4994287;28;20292;-88
2024/02/19 10:28:57;;;;;;;;;;;;;;;7.10;100.00;100947.06;4994952;28;19918;-88
2024/02/19 10:31:23;;;;;;;;;;;;;;;7.06;100.00;100946.22;5012943;28;19925;-88
2024/02/19 10:33:48;;;;;;;;;;;;;;;7.15;100.00;100953.16;5012769;28;19937;-88
2024/02/19 10:36:19;;;;;;;;;;;;;;;7.12;100.00;100961.09;4995530;28;19917;-87
2024/02/19 10:38:44;;;;;;;;;;;;;;;7.06;100.00;100950.63;5013474;28;19949;-88
2024/02/19 10:41:10;;;;;;;;;;;;;;;7.13;100.00;100961.97;5012313;28;19921;-89
2024/02/19 10:43:36;;;;;;;;;;;;;;;7.07;100.00;100953.25;4995162;28;19921;-91
2024/02/19 10:46:01;;;;;;;;;;;;;;;7.13;100.00;100946.16;5013233;28;20555;-90
2024/02/19 10:48:30;;;;;;;;;;;;;;;7.13;100.00;100940.88;4995382;28;20451;-89
2024/02/19 10:50:56;;;;;;;;;;;;;;;7.14;100.00;100943.50;4995594;28;20533;-89
2024/02/19 10:53:27;;;;;;;;;;;;;;;7.15;100.00;100936.47;5012928;28;20009;-90
2024/02/19 10:56:07;;;;;;;;;;;;;;;7.14;100.00;100932.09;4993977;28;20120;-90
2024/02/19 10:58:35;;;;;;;;;;;;;;;7.13;100.00;100935.59;4991361;28;19922;-90
2024/02/19 11:01:03;;;;;;;;;;;;;;;7.22;100.00;100932.88;4993102;28;19925;-89
2024/02/19 11:03:30;;;;;;;;;;;;;;;7.15;100.00;100929.44;4984771;28;19921;-90
2024/02/19 11:05:59;;;;;;;;;;;;;;;7.17;100.00;100913.63;4993093;28;19922;-88
2024/02/19 11:08:24;;;;;;;;;;;;;;;7.16;100.00;100906.59;4983543;28;19921;-87
2024/02/19 11:10:52;;;;;;;;;;;;;;;7.14;100.00;100901.34;4988259;28;19926;-89
2024/02/19 11:13:18;;;;;;;;;;;;;;;7.18;100.00;100881.97;4991324;28;19922;-89
2024/02/19 11:15:44;;;;;;;;;;;;;;;7.18;100.00;100859.97;4984464;28;20507;-88
2024/02/19 11:18:16;;;;;;;;;;;;;;;7.22;100.00;100843.25;4992494;28;19924;-87
2024/02/19 11:20:42;;;;;;;;;;;;;;;7.23;100.00;100829.19;4990589;28;20008;-83
2024/02/19 11:23:07;;;;;;;;;;;;;;;7.21;100.00;100828.31;4993033;28;20492;-89
2024/02/19 11:25:33;;;;;;;;;;;;;;;7.22;100.00;100851.16;4990878;28;19933;-89
2024/02/19 11:27:58;;;;;;;;;;;;;;;7.24;100.00;100854.66;4992351;28;19917;-89
2024/02/19 11:30:25;;;;;;;;;;;;;;;7.23;100.00;100855.56;4983736;28;19918;-88
2024/02/19 11:33:03;;;;;;;;;;;;;;;7.23;100.00;100858.19;4983291;28;20296;-88
2024/02/19 11:35:28;;;;;;;;;;;;;;;7.24;100.00;100854.66;4999804;28;19921;-88
2024/02/19 11:37:54;;;;;;;;;;;;;;;7.27;100.00;100850.22;4984709;28;19929;-88
2024/02/19 11:40:19;;;;;;;;;;;;;;;7.16;100.00;100869.69;4990055;28;19925;-88
2024/02/19 11:42:45;;;;;;;;;;;;;;;7.18;100.00;100876.69;4992355;28;19922;-88
2024/02/19 11:45:11;;;;;;;;;;;;;;;7.31;100.00;100871.25;4992874;28;19918;-87
2024/02/19 11:47:37;;;;;;;;;;;;;;;7.22;100.00;100875.75;4992872;28;20368;-88
2024/02/19 11:50:05;;;;;;;;;;;;;;;7.25;100.00;100865.16;4983359;28;20001;-89
2024/02/19 11:52:30;;;;;;;;;;;;;;;7.32;100.00;100865.09;4989537;28;20013;-88
2024/02/19 11:54:55;;;;;;;;;;;;;;;7.25;100.00;100873.09;4982214;28;20016;-88
2024/02/19 11:57:22;;;;;;;;;;;;;;;7.29;100.00;100871.28;5000978;28;19921;-88
2024/02/19 11:59:47;;;;;;;;;;;;;;;7.30;100.00;100859.84;5011784;28;19921;-88
2024/02/19 12:02:13;;;;;;;;;;;;;;;7.29;100.00;100850.19;5010447;28;20084;-88
2024/02/19 12:04:38;;;;;;;;;;;;;;;7.24;100.00;100844.09;5012267;28;19922;-88
2024/02/19 12:07:04;;;;;;;;;;;;;;;7.26;100.00;100831.78;4994831;28;19921;-88
2024/02/19 12:09:30;;;;;;;;;;;;;;;7.25;100.00;100835.31;4993302;28;19925;-89
2024/02/19 12:11:55;;;;;;;;;;;;;;;7.29;100.00;100834.38;4994520;28;19949;-87
2024/02/19 12:14:20;;;;;;;;;;;;;;;7.29;100.00;100831.72;4994687;28;19921;-87
2024/02/19 12:16:46;;;;;;;;;;;;;;;7.33;100.00;100828.16;5011904;28;19922;-88
2024/02/19 12:19:14;;;;;;;;;;;;;;;7.33;100.00;100827.31;4986528;28;19921;-89
2024/02/19 12:21:42;;;;;;;;;;;;;;;7.35;100.00;100829.00;4994514;28;19975;-87
2024/02/19 12:24:09;;;;;;;;;;;;;;;7.30;100.00;100827.34;5011413;28;19917;-84
2024/02/19 12:26:37;;;;;;;;;;;;;;;7.29;100.00;100826.44;4993205;28;19918;-88
2024/02/19 12:29:02;;;;;;;;;;;;;;;7.30;100.00;100820.31;4994386;28;20000;-91
2024/02/19 12:31:27;;;;;;;;;;;;;;;7.31;100.00;100814.16;4994210;28;20366;-86
2024/02/19 12:33:53;;;;;;;;;;;;;;;7.31;100.00;100819.41;5011063;28;19976;-83
2024/02/19 12:36:18;;;;;;;;;;;;;;;7.28;100.00;100820.31;5012092;28;19921;-88
2024/02/19 12:38:44;;;;;;;;;;;;;;;7.34;100.00;100814.09;4993987;28;20298;-90
2024/02/19 12:41:14;;;;;;;;;;;;;;;7.26;100.00;100811.56;4992544;28;19925;-89
2024/02/19 12:43:39;;;;;;;;;;;;;;;7.24;100.00;100807.19;5011502;28;19925;-87
2024/02/19 12:46:10;;;;;;;;;;;;;;;7.31;100.00;100802.72;4994422;28;20322;-88
2024/02/19 12:48:35;;;;;;;;;;;;;;;7.29;100.00;100800.09;4994014;28;19914;-88
2024/02/19 12:51:01;;;;;;;;;;;;;;;7.31;100.00;100787.78;4994390;28;19922;-89
2024/02/19 12:53:28;;;;;;;;;;;;;;;7.31;100.00;100792.16;5010885;28;19944;-88
2024/02/19 12:55:53;;;;;;;;;;;;;;;7.33;100.00;100796.53;5010618;28;20455;-90
2024/02/19 12:58:18;;;;;;;;;;;;;;;7.34;100.00;100782.47;4994077;28;20020;-88
2024/02/19 13:00:44;;;;;;;;;;;;;;;7.36;100.00;100787.72;5011415;28;19926;-87
2024/02/19 13:03:09;;;;;;;;;;;;;;;7.37;100.00;100785.06;4993829;28;19929;-87
2024/02/19 13:05:34;;;;;;;;;;;;;;;7.36;100.00;100780.69;5011546;28;19972;-86
2024/02/19 13:07:59;;;;;;;;;;;;;;;7.37;100.00;100782.44;4994198;28;19944;-87
2024/02/19 13:10:25;;;;;;;;;;;;;;;7.39;100.00;100790.31;4992997;28;19953;-87
2024/02/19 13:12:51;;;;;;;;;;;;;;;7.35;100.00;100783.31;5013910;28;19940;-88
2024/02/19 13:15:19;;;;;;;;;;;;;;;7.35;100.00;100786.81;4997157;28;19921;-89
2024/02/19 13:17:45;;;;;;;;;;;;;;;7.41;100.00;100778.84;4996658;28;20387;-88
2024/02/19 13:20:12;;;;;;;;;;;;;;;7.39;100.00;100791.19;5015097;28;19917;-90
2024/02/19 13:22:38;;;;;;;;;;;;;;;7.36;100.00;100791.22;5014460;28;19953;-88
2024/02/19 13:25:03;;;;;;;;;;;;;;;7.40;100.00;100786.75;4995953;28;19964;-90
2024/02/19 13:27:28;;;;;;;;;;;;;;;7.36;100.00;100785.94;4997302;28;19921;-87
2024/02/19 13:29:54;;;;;;;;;;;;;;;7.32;100.00;100778.97;4997452;28;19922;-89
2024/02/19 13:32:19;;;;;;;;;;;;;;;7.35;100.00;100785.97;5013801;28;19925;-88
2024/02/19 13:34:45;;;;;;;;;;;;;;;7.31;100.00;100787.78;4995048;28;19965;-90
2024/02/19 13:37:10;;;;;;;;;;;;;;;7.30;100.00;100778.13;5010213;28;19947;-87
2024/02/19 13:39:35;;;;;;;;;;;;;;;7.31;100.00;100786.88;5013682;28;20365;-89
2024/02/19 13:42:01;;;;;;;;;;;;;;;7.34;100.00;100785.09;5014991;28;19985;-88
2024/02/19 13:44:28;;;;;;;;;;;;;;;7.36;100.00;100774.53;4996965;28;19922;-90
2024/02/19 13:46:54;;;;;;;;;;;;;;;7.40;100.00;100779.75;4993671;28;20482;-87
2024/02/19 13:49:19;;;;;;;;;;;;;;;7.34;100.00;100773.66;5014483;28;19967;-91
2024/02/19 13:51:44;;;;;;;;;;;;;;;7.34;100.00;100774.56;4996414;28;19952;-84
2024/02/19 13:54:12;;;;;;;;;;;;;;;7.36;100.00;100767.50;4996798;28;20008;-92
2024/02/19 13:56:39;;;;;;;;;;;;;;;7.36;100.00;100764.84;4995824;28;19918;-87
2024/02/19 13:59:07;;;;;;;;;;;;;;;7.35;100.00;100759.59;4996513;28;19953;-87
2024/02/19 14:01:32;;;;;;;;;;;;;;;7.31;100.00;100748.22;5014449;28;19925;-83
2024/02/19 14:03:57;;;;;;;;;;;;;;;7.29;100.00;100747.34;5013933;28;20288;-88
2024/02/19 14:06:22;;;;;;;;;;;;;;;7.29;100.00;100739.44;5013852;28;19936;-90
2024/02/19 14:08:48;;;;;;;;;;;;;;;7.33;100.00;100741.16;4996466;28;19921;-87
2024/02/19 14:11:13;;;;;;;;;;;;;;;7.33;100.00;100735.91;5012426;28;19921;-89
2024/02/19 14:13:39;;;;;;;;;;;;;;;7.38;100.00;100728.78;5013588;28;19921;-86
2024/02/19 14:16:04;;;;;;;;;;;;;;;7.39;100.00;100721.75;5012867;28;19930;-88
2024/02/19 14:18:29;;;;;;;;;;;;;;;7.43;100.00;100723.44;4995583;28;19947;-87
2024/02/19 14:20:56;;;;;;;;;;;;;;;7.49;100.00;100718.06;5013025;28;20300;-83
2024/02/19 14:23:21;;;;;;;;;;;;;;;9.07;100.00;100727.50;5013010;28;19924;-81
2024/02/19 14:25:49;;;;;;;;;;;;;;;8.72;100.00;100729.13;5012394;28;20319;-88
2024/02/19 14:28:14;;;;;;;;;;;;;;;8.19;100.00;100723.94;4996263;28;20357;-84
2024/02/19 14:30:39;;;;;;;;;;;;;;;8.06;100.00;100722.44;5013708;28;19928;-86
2024/02/19 14:33:05;;;;;;;;;;;;;;;7.91;100.00;100720.03;4996253;28;19925;-87
2024/02/19 14:35:32;;;;;;;;;;;;;;;7.85;100.00;100713.13;4995290;28;19922;-83
2024/02/19 14:38:00;;;;;;;;;;;;;;;7.85;100.00;100714.88;5013675;28;19925;-90
2024/02/19 14:40:25;;;;;;;;;;;;;;;7.82;100.00;100711.38;4994406;28;19917;-91
2024/02/19 14:42:50;;;;;;;;;;;;;;;7.71;100.00;100705.44;4995511;28;19924;-87
2024/02/19 14:45:16;;;;;;;;;;;;;;;7.71;100.00;100708.06;4995899;28;20614;-86
2024/02/19 14:47:43;;;;;;;;;;;;;;;7.72;100.00;100703.66;4995462;28;20020;-88
2024/02/19 14:50:09;;;;;;;;;;;;;;;7.66;100.00;100703.75;5013181;28;19928;-88
2024/02/19 14:52:35;;;;;;;;;;;;;;;7.62;100.00;100703.78;5013226;28;19922;-87
2024/02/19 14:55:07;;;;;;;;;;;;;;;7.62;100.00;100709.06;4994177;28;19925;-87
2024/02/19 14:57:33;;;;;;;;;;;;;;;7.67;100.00;100706.34;4994729;28;19921;-87
2024/02/19 14:59:58;;;;;;;;;;;;;;;7.62;100.00;100703.78;4995709;28;19922;-84
2024/02/19 15:02:24;;;;;;;;;;;;;;;7.57;100.00;100703.00;5012427;28;19922;-86
2024/02/19 15:04:49;;;;;;;;;;;;;;;7.64;100.00;100709.94;4994889;28;19925;-85
2024/02/19 15:07:14;;;;;;;;;;;;;;;7.65;100.00;100705.53;4995132;28;19928;-86
2024/02/19 15:09:41;;;;;;;;;;;;;;;7.60;100.00;100702.09;4994249;28;20269;-86
2024/02/19 15:12:08;;;;;;;;;;;;;;;7.63;100.00;100699.41;4993686;28;19921;-82
2024/02/19 15:14:34;;;;;;;;;;;;;;;7.62;100.00;100702.94;4994275;28;20312;-84
2024/02/19 15:16:59;;;;;;;;;;;;;;;7.65;100.00;100702.88;4995425;28;19932;-83
2024/02/19 15:19:25;;;;;;;;;;;;;;;7.61;100.00;100696.78;4994811;28;20284;-82
2024/02/19 15:21:50;;;;;;;;;;;;;;;7.62;100.00;100700.28;4994964;28;19926;-85
2024/02/19 15:24:15;;;;;;;;;;;;;;;7.56;100.00;100695.09;4994658;28;20372;-81
2024/02/19 15:26:40;;;;;;;;;;;;;;;7.62;100.00;100690.59;5011203;28;20383;-84
2024/02/19 15:29:06;;;;;;;;;;;;;;;7.61;100.00;100685.34;4993138;28;19925;-91
2024/02/19 15:31:31;;;;;;;;;;;;;;;7.54;100.00;100684.59;5012552;28;19932;-89
2024/02/19 15:33:58;;;;;;;;;;;;;;;7.55;100.00;100690.75;4994132;28;20011;-85
2024/02/19 15:36:25;;;;;;;;;;;;;;;7.61;100.00;100686.25;4995651;28;19929;-88
2024/02/19 15:38:51;;;;;;;;;;;;;;;7.61;100.00;100680.06;5011451;28;19951;-90
2024/02/19 15:41:19;;;;;;;;;;;;;;;7.60;100.00;100683.63;4993984;28;20315;-85
2024/02/19 15:43:46;;;;;;;;;;;;;;;7.59;100.00;100693.28;5012002;28;19933;-87
2024/02/19 15:46:11;;;;;;;;;;;;;;;7.59;100.00;100693.28;4995060;28;19964;-92
2024/02/19 15:48:37;;;;;;;;;;;;;;;7.53;100.00;100688.13;4993560;28;20393;-92
2024/02/19 15:51:02;;;;;;;;;;;;;;;7.59;100.00;100688.00;4994522;28;19921;-90
2024/02/19 15:53:27;;;;;;;;;;;;;;;7.60;100.00;100688.91;5012295;28;19922;-90
2024/02/19 15:55:53;;;;;;;;;;;;;;;7.61;100.00;100696.78;4992951;28;19949;-88
2024/02/19 15:58:21;;;;;;;;;;;;;;;7.58;100.00;100695.97;4977005;28;19972;-90
2024/02/19 16:00:49;;;;;;;;;;;;;;;7.62;100.00;100705.56;4993744;28;19932;-91
2024/02/19 16:03:17;;;;;;;;;;;;;;;7.66;100.00;100702.00;4993273;28;19926;-87
2024/02/19 16:05:44;;;;;;;;;;;;;;;7.64;100.00;100706.41;4994240;28;19929;-88
2024/02/19 16:08:27;;;;;;;;;;;;;;;7.61;100.00;100695.91;5011966;28;19921;-85
2024/02/19 16:10:55;;;;;;;;;;;;;;;7.56;100.00;100698.63;4993206;28;19928;-87
2024/02/19 16:13:20;;;;;;;;;;;;;;;7.52;100.00;100691.66;5011802;28;20443;-88
2024/02/19 16:15:46;;;;;;;;;;;;;;;7.58;100.00;100690.72;5012182;28;20040;-90
2024/02/19 16:18:13;;;;;;;;;;;;;;;7.66;100.00;100694.09;5011063;28;19936;-90
2024/02/19 16:20:38;;;;;;;;;;;;;;;7.58;100.00;100688.06;5012727;28;19924;-95
2024/02/19 16:23:03;;;;;;;;;;;;;;;7.57;100.00;100678.41;4994576;28;19922;-89
2024/02/19 16:25:29;;;;;;;;;;;;;;;7.62;100.00;100681.81;5010260;28;20332;-89
2024/02/19 16:27:56;;;;;;;;;;;;;;;7.50;100.00;100687.28;4994445;28;19931;-91
2024/02/19 16:30:22;;;;;;;;;;;;;;;7.51;100.00;100682.00;5011857;28;19921;-86
2024/02/19 16:32:47;;;;;;;;;;;;;;;7.55;100.00;100680.19;5011409;28;19929;-92
2024/02/19 16:35:12;;;;;;;;;;;;;;;7.53;100.00;100676.69;5011608;28;20388;-88
2024/02/19 16:37:38;;;;;;;;;;;;;;;7.60;100.00;100673.06;5012079;28;19925;-91
2024/02/19 16:40:03;;;;;;;;;;;;;;;7.60;100.00;100683.63;5009171;28;20270;-87
2024/02/19 16:42:34;;;;;;;;;;;;;;;7.53;100.00;100684.59;5011171;28;19965;-85
2024/02/19 16:45:00;;;;;;;;;;;;;;;7.57;100.00;100683.69;4994291;28;19952;-90
2024/02/19 16:47:35;;;;;;;;;;;;;;;;;;;;;
2024/02/19 16:50:00;;;;;;;;;;;;;;;7.58;100.00;100683.66;5015631;28;19925;-89
2024/02/19 16:52:26;;;;;;;;;;;;;;;7.63;100.00;100691.50;5015962;28;20028;-87
2024/02/19 16:54:51;;;;;;;;;;;;;;;7.60;100.00;100688.91;5014366;28;20372;-82
2024/02/19 16:57:16;;;;;;;;;;;;;;;7.60;100.00;100678.34;5015676;28;19967;-87
2024/02/19 16:59:42;;;;;;;;;;;;;;;7.62;100.00;100687.09;5015624;28;19963;-86
2024/02/19 17:02:07;;;;;;;;;;;;;;;7.58;100.00;100686.28;5015367;28;19921;-86
2024/02/19 17:04:32;;;;;;;;;;;;;;;7.62;100.00;100684.47;5014857;28;19917;-87
2024/02/19 17:06:58;;;;;;;;;;;;;;;7.64;100.00;100678.28;4997602;28;19926;-87
2024/02/19 17:09:23;;;;;;;;;;;;;;;7.62;100.00;100677.41;4996715;28;20017;-90
2024/02/19 17:11:48;;;;;;;;;;;;;;;7.62;100.00;100684.47;4996879;28;20403;-90
2024/02/19 17:14:16;;;;;;;;;;;;;;;7.60;100.00;100683.63;4997248;28;19917;-87
2024/02/19 17:16:41;;;;;;;;;;;;;;;7.57;100.00;100684.53;5014949;28;19922;-89
2024/02/19 17:19:06;;;;;;;;;;;;;;;7.57;100.00;100686.31;5004803;28;19925;-90
2024/02/19 17:21:31;;;;;;;;;;;;;;;7.65;100.00;100681.78;4997508;28;19984;-89
2024/02/19 17:23:57;;;;;;;;;;;;;;;7.57;100.00;100689.81;5014906;28;19924;-90
2024/02/19 17:26:22;;;;;;;;;;;;;;;7.54;100.00;100692.50;4995915;28;19925;-88
2024/02/19 17:28:47;;;;;;;;;;;;;;;7.54;100.00;100684.59;5014012;28;19925;-89
2024/02/19 17:31:13;;;;;;;;;;;;;;;7.62;100.00;100689.75;5014842;28;19967;-87
2024/02/19 17:33:38;;;;;;;;;;;;;;;7.52;100.00;100682.88;5014995;28;19918;-87
2024/02/19 17:36:03;;;;;;;;;;;;;;;7.57;100.00;100683.69;5014749;28;20017;-85
2024/02/19 17:38:29;;;;;;;;;;;;;;;7.55;100.00;100680.19;5014773;28;19918;-86
2024/02/19 17:40:58;;;;;;;;;;;;;;;7.59;100.00;100680.09;4995641;28;19976;-85
2024/02/19 17:43:23;;;;;;;;;;;;;;;7.59;100.00;100684.50;4996857;28;20387;-88
2024/02/19 17:45:49;;;;;;;;;;;;;;;7.56;100.00;100674.00;5014573;28;19918;-86
2024/02/19 17:48:14;;;;;;;;;;;;;;;7.59;100.00;100676.59;4996461;28;19941;-85
2024/02/19 17:50:40;;;;;;;;;;;;;;;7.60;100.00;100673.94;5014350;28;19968;-86
2024/02/19 17:53:06;;;;;;;;;;;;;;;7.61;100.00;100667.78;5014180;28;19933;-86
2024/02/19 17:55:31;;;;;;;;;;;;;;;7.57;100.00;100673.13;5013234;28;20459;-86
2024/02/19 17:57:56;;;;;;;;;;;;;;;7.58;100.00;100665.19;5014067;28;19921;-86
2024/02/19 18:00:22;;;;;;;;;;;;;;;7.54;100.00;100658.22;5014367;28;19921;-84
2024/02/19 18:02:47;;;;;;;;;;;;;;;7.65;100.00;100660.69;5014532;28;19949;-84
2024/02/19 18:05:12;;;;;;;;;;;;;;;7.65;100.00;100663.31;5014518;28;20371;-86
2024/02/19 18:07:38;;;;;;;;;;;;;;;7.57;100.00;100663.44;5014282;28;19964;-89
2024/02/19 18:10:03;;;;;;;;;;;;;;;7.62;100.00;100660.72;4995712;28;19921;-84
2024/02/19 18:12:29;;;;;;;;;;;;;;;7.64;100.00;100666.84;5014279;28;19918;-87
2024/02/19 18:14:55;;;;;;;;;;;;;;;7.58;100.00;100669.59;4996628;28;19925;-89
2024/02/19 18:17:20;;;;;;;;;;;;;;;7.62;100.00;100672.13;5013195;28;19928;-87
2024/02/19 18:19:47;;;;;;;;;;;;;;;7.72;100.00;100679.91;5013863;28;19922;-86
2024/02/19 18:22:13;;;;;;;;;;;;;;;7.66;100.00;100678.25;5014087;28;19964;-85
2024/02/19 18:24:38;;;;;;;;;;;;;;;7.72;100.00;100683.44;5012586;28;20365;-85
2024/02/19 18:27:05;;;;;;;;;;;;;;;7.61;100.00;100680.06;5013823;28;19929;-85
2024/02/19 18:29:32;;;;;;;;;;;;;;;7.75;100.00;100682.50;4996140;28;19968;-90
2024/02/19 18:32:00;;;;;;;;;;;;;;;7.75;100.00;100682.50;5013569;28;20289;-88
2024/02/19 18:34:25;;;;;;;;;;;;;;;7.70;100.00;100685.19;4996049;28;19983;-87
2024/02/19 18:36:54;;;;;;;;;;;;;;;7.69;100.00;100682.59;4996037;28;19917;-87
2024/02/19 18:39:21;;;;;;;;;;;;;;;7.62;100.00;100685.31;4996011;28;19917;-87
2024/02/19 18:41:46;;;;;;;;;;;;;;;7.63;100.00;100692.34;4994709;28;20384;-86
2024/02/19 18:44:11;;;;;;;;;;;;;;;7.67;100.00;100690.53;5009864;28;19917;-87
2024/02/19 18:46:37;;;;;;;;;;;;;;;7.69;100.00;100686.13;4996238;28;20792;-87
2024/02/19 18:49:02;;;;;;;;;;;;;;;7.69;100.00;100688.75;5013445;28;19917;-88
2024/02/19 18:51:27;;;;;;;;;;;;;;;7.74;100.00;100679.00;4995872;28;19921;-89
2024/02/19 18:53:54;;;;;;;;;;;;;;;7.68;100.00;100676.47;4995770;28;19935;-88
2024/02/19 18:56:19;;;;;;;;;;;;;;;7.72;100.00;100682.53;5011857;28;19917;-85
2024/02/19 18:58:47;;;;;;;;;;;;;;;7.71;100.00;100678.19;4995536;28;20000;-87
2024/02/19 19:01:13;;;;;;;;;;;;;;;7.68;100.00;100676.47;4995544;28;19921;-86
2024/02/19 19:03:38;;;;;;;;;;;;;;;7.69;100.00;100677.31;5013053;28;19917;-88
2024/02/19 19:06:04;;;;;;;;;;;;;;;7.71;100.00;100673.75;5013155;28;19925;-86
2024/02/19 19:08:29;;;;;;;;;;;;;;;7.64;100.00;100678.28;4995604;28;20510;-87
2024/02/19 19:10:55;;;;;;;;;;;;;;;7.64;100.00;100680.03;5010772;28;20284;-88
2024/02/19 19:13:20;;;;;;;;;;;;;;;7.72;100.00;100675.53;4995338;28;20446;-87
2024/02/19 19:15:45;;;;;;;;;;;;;;;7.64;100.00;100680.03;5013573;28;19924;-89
2024/02/19 19:18:11;;;;;;;;;;;;;;;7.64;100.00;100672.13;4995268;28;20029;-88
2024/02/19 19:20:38;;;;;;;;;;;;;;;7.69;100.00;100672.94;5013117;28;19917;-87
2024/02/19 19:23:04;;;;;;;;;;;;;;;7.69;100.00;100672.94;4995128;28;19921;-84
2024/02/19 19:25:30;;;;;;;;;;;;;;;7.66;100.00;100678.25;4994228;28;20369;-88
2024/02/19 19:27:55;;;;;;;;;;;;;;;7.73;100.00;100679.03;4995180;28;19917;-88
2024/02/19 19:30:22;;;;;;;;;;;;;;;7.67;100.00;100679.97;5012845;28;19925;-86
2024/02/19 19:32:47;;;;;;;;;;;;;;;7.59;100.00;100680.09;4994395;28;19917;-87
2024/02/19 19:35:14;;;;;;;;;;;;;;;7.59;100.00;100671.31;4995065;28;20392;-88
2024/02/19 19:37:39;;;;;;;;;;;;;;;7.66;100.00;100672.09;4992903;28;19991;-88
2024/02/19 19:40:06;;;;;;;;;;;;;;;7.70;100.00;100666.75;5010877;28;20365;-86
2024/02/19 19:42:31;;;;;;;;;;;;;;;7.70;100.00;100669.38;5012588;28;19972;-87
2024/02/19 19:44:59;;;;;;;;;;;;;;;7.66;100.00;100670.34;4994748;28;19917;-87
2024/02/19 19:47:24;;;;;;;;;;;;;;;7.69;100.00;100672.94;4994803;28;20020;-87
2024/02/19 19:49:51;;;;;;;;;;;;;;;7.64;100.00;100680.03;4994937;28;20016;-88
2024/02/19 19:52:16;;;;;;;;;;;;;;;7.63;100.00;100678.31;4994653;28;19917;-90
2024/02/19 19:54:50;;;;;;;;;;;;;;;7.66;100.00;100672.09;4993631;28;19918;-87
2024/02/19 19:57:16;;;;;;;;;;;;;;;7.64;100.00;100680.91;4994470;28;19925;-88
2024/02/19 19:59:47;;;;;;;;;;;;;;;7.68;100.00;100683.50;4994723;28;19928;-88
2024/02/19 20:02:12;;;;;;;;;;;;;;;7.64;100.00;100687.94;4994447;28;19972;-89
2024/02/19 20:04:38;;;;;;;;;;;;;;;7.66;100.00;100680.91;5012249;28;19917;-87
2024/02/19 20:07:03;;;;;;;;;;;;;;;7.57;100.00;100684.53;4994444;28;19922;-86
2024/02/19 20:09:28;;;;;;;;;;;;;;;7.65;100.00;100692.34;4993571;28;20292;-89
2024/02/19 20:11:53;;;;;;;;;;;;;;;7.72;100.00;100693.09;5012085;28;19921;-88
2024/02/19 20:14:19;;;;;;;;;;;;;;;7.68;100.00;100684.38;4994592;28;19987;-88
2024/02/19 20:16:44;;;;;;;;;;;;;;;7.76;100.00;100679.84;5012254;28;19917;-88
2024/02/19 20:19:10;;;;;;;;;;;;;;;7.66;100.00;100683.53;4994613;28;20350;-90
2024/02/19 20:21:36;;;;;;;;;;;;;;;7.64;100.00;100686.19;4995238;28;20416;-87
2024/02/19 20:24:02;;;;;;;;;;;;;;;7.75;100.00;100679.84;5015981;28;20064;-87
2024/02/19 20:26:27;;;;;;;;;;;;;;;7.63;100.00;100673.88;5014245;28;20261;-89
2024/02/19 20:28:52;;;;;;;;;;;;;;;7.66;100.00;100672.97;4998549;28;20040;-89
2024/02/19 20:31:17;;;;;;;;;;;;;;;7.70;100.00;100671.16;5016139;28;19964;-89
2024/02/19 20:33:43;;;;;;;;;;;;;;;7.71;100.00;100678.19;4998902;28;19972;-89
2024/02/19 20:36:10;;;;;;;;;;;;;;;7.70;100.00;100681.72;5015955;28;19988;-90
2024/02/19 20:38:36;;;;;;;;;;;;;;;7.73;100.00;100682.50;4998097;28;19918;-87
2024/02/19 20:41:19;;;;;;;;;;;;;;;7.76;100.00;100695.66;5014820;28;20281;-89
2024/02/19 20:43:45;;;;;;;;;;;;;;;7.77;100.00;100692.13;4998363;28;20319;-88
2024/02/19 20:46:11;;;;;;;;;;;;;;;7.76;100.00;100690.38;4998090;28;19922;-90
2024/02/19 20:48:36;;;;;;;;;;;;;;;7.82;100.00;100689.41;5015699;28;20490;-86
2024/02/19 20:51:01;;;;;;;;;;;;;;;7.79;100.00;100698.25;4996931;28;19918;-86
2024/02/19 20:53:27;;;;;;;;;;;;;;;7.76;100.00;100694.81;5015851;28;19922;-89
2024/02/19 20:55:52;;;;;;;;;;;;;;;7.78;100.00;100700.91;4995943;28;19918;-89
2024/02/19 20:58:18;;;;;;;;;;;;;;;7.79;100.00;100698.25;5015255;28;19984;-87
2024/02/19 21:00:43;;;;;;;;;;;;;;;7.78;100.00;100707.03;4997938;28;19918;-88
2024/02/19 21:03:08;;;;;;;;;;;;;;;7.82;100.00;100706.13;4997646;28;19925;-88